createdAt,value
2022-11-24T00:02:29.559Z,7.00
2022-11-24T00:04:57.620Z,8.07
2022-11-24T00:07:28.689Z,6.87
2022-11-24T00:09:56.759Z,6.23
2022-11-24T00:15:50.989Z,6.07
2022-11-24T00:18:18.928Z,5.37
2022-11-24T00:20:53.327Z,5.70
2022-11-24T00:23:21.259Z,5.73
2022-11-24T00:25:49.194Z,5.63
2022-11-24T00:28:19.939Z,6.13
2022-11-24T00:30:47.905Z,5.83
2022-11-24T00:33:17.385Z,6.00
2022-11-24T00:35:45.314Z,5.70
2022-11-24T00:38:13.247Z,5.63
2022-11-24T00:40:41.210Z,5.80
2022-11-24T00:43:09.398Z,5.27
2022-11-24T00:45:37.726Z,5.87
2022-11-24T00:48:05.944Z,5.80
2022-11-24T00:50:35.437Z,6.30
2022-11-24T00:53:03.435Z,6.07
2022-11-24T00:55:31.403Z,5.37
2022-11-24T00:57:59.489Z,6.47
2022-11-24T01:00:27.671Z,6.00
2022-11-24T01:02:55.680Z,6.87
2022-11-24T01:05:23.828Z,5.87
2022-11-24T01:07:53.282Z,5.93
2022-11-24T01:10:27.351Z,5.90
2022-11-24T01:12:55.469Z,5.77
2022-11-24T01:15:23.406Z,6.17
2022-11-24T01:17:56.927Z,5.83
2022-11-24T01:20:24.923Z,6.40
2022-11-24T01:22:54.399Z,5.97
2022-11-24T01:25:22.413Z,6.63
2022-11-24T01:27:50.583Z,5.73
2022-11-24T01:30:18.849Z,6.63
2022-11-24T01:32:46.886Z,6.00
2022-11-24T01:35:14.956Z,6.00
2022-11-24T01:37:43.136Z,6.53
2022-11-24T01:40:13.639Z,6.37
2022-11-24T01:42:44.221Z,6.30
2022-11-24T01:45:30.700Z,5.90
2022-11-24T01:48:04.000Z,5.60
2022-11-24T01:50:35.604Z,5.57
2022-11-24T01:53:03.941Z,6.23
2022-11-24T01:55:36.012Z,5.20
2022-11-24T01:58:06.807Z,6.20
2022-11-24T02:00:35.753Z,5.03
2022-11-24T02:03:03.820Z,5.40
2022-11-24T02:05:34.784Z,5.70
2022-11-24T02:08:03.541Z,5.60
2022-11-24T02:10:31.896Z,5.53
2022-11-24T02:13:01.872Z,5.27
2022-11-24T02:15:30.397Z,5.63
2022-11-24T02:18:00.049Z,5.17
2022-11-24T02:20:28.057Z,4.97
2022-11-24T02:22:59.268Z,6.10
2022-11-24T02:25:30.861Z,4.70
2022-11-24T02:28:04.414Z,5.47
2022-11-24T02:30:32.776Z,5.03
2022-11-24T02:33:00.800Z,4.67
2022-11-24T02:35:29.420Z,5.57
2022-11-24T02:37:57.443Z,5.47
2022-11-24T02:40:28.020Z,5.53
2022-11-24T02:42:56.753Z,5.90
2022-11-24T02:45:27.059Z,5.43
2022-11-24T02:47:55.032Z,5.80
2022-11-24T02:50:23.043Z,6.03
2022-11-24T02:52:51.058Z,5.73
2022-11-24T02:55:19.028Z,6.23
2022-11-24T02:57:47.149Z,5.50
2022-11-24T03:00:15.658Z,5.17
2022-11-24T03:02:45.227Z,5.47
2022-11-24T03:05:13.532Z,4.97
2022-11-24T03:07:41.713Z,4.97
2022-11-24T03:10:11.319Z,4.40
2022-11-24T03:12:39.580Z,5.87
2022-11-24T03:15:07.959Z,5.20
2022-11-24T03:17:36.033Z,4.63
2022-11-24T03:20:05.663Z,4.67
2022-11-24T03:22:33.789Z,4.77
2022-11-24T03:25:01.780Z,5.60
2022-11-24T03:27:29.733Z,4.60
2022-11-24T03:29:57.751Z,4.47
2022-11-24T03:32:25.720Z,4.33
2022-11-24T03:34:53.678Z,4.40
2022-11-24T03:37:23.291Z,4.47
2022-11-24T03:39:51.269Z,5.03
2022-11-24T03:42:19.230Z,4.80
2022-11-24T03:44:47.219Z,4.77
2022-11-24T03:47:15.329Z,5.20
2022-11-24T03:49:43.321Z,4.33
2022-11-24T03:52:11.327Z,4.63
2022-11-24T03:54:40.824Z,4.87
2022-11-24T03:57:08.904Z,5.33
2022-11-24T03:59:36.949Z,5.13
2022-11-24T04:02:05.090Z,5.00
2022-11-24T04:04:33.530Z,5.47
2022-11-24T04:07:01.719Z,4.40
2022-11-24T04:09:29.684Z,4.10
2022-11-24T04:12:16.361Z,4.60
2022-11-24T04:14:44.340Z,5.57
2022-11-24T04:17:12.348Z,4.67
2022-11-24T04:19:40.310Z,4.70
2022-11-24T04:22:08.355Z,4.73
2022-11-24T04:24:36.532Z,5.17
2022-11-24T04:27:05.988Z,4.73
2022-11-24T04:29:33.989Z,4.27
2022-11-24T04:32:01.956Z,4.90
2022-11-24T04:34:29.944Z,4.20
2022-11-24T04:36:58.147Z,6.13
2022-11-24T04:39:28.610Z,6.90
2022-11-24T04:41:56.872Z,5.57
2022-11-24T04:44:26.343Z,5.23
2022-11-24T04:46:54.484Z,5.30
2022-11-24T04:49:22.540Z,4.40
2022-11-24T04:51:50.571Z,5.60
2022-11-24T04:54:18.548Z,5.40
2022-11-24T04:56:46.516Z,5.13
2022-11-24T04:59:15.471Z,5.47
2022-11-24T05:01:45.266Z,5.03
2022-11-24T05:04:13.683Z,4.93
2022-11-24T05:06:41.716Z,5.03
2022-11-24T05:09:09.870Z,5.73
2022-11-24T05:11:38.167Z,5.23
2022-11-24T05:14:06.097Z,5.77
2022-11-24T05:16:34.171Z,5.17
2022-11-24T05:19:03.700Z,5.67
2022-11-24T05:21:31.739Z,5.20
2022-11-24T05:23:59.655Z,4.93
2022-11-24T05:26:28.216Z,4.77
2022-11-24T05:28:56.198Z,5.53
2022-11-24T05:31:24.508Z,4.97
2022-11-24T05:33:52.579Z,5.20
2022-11-24T05:36:53.913Z,6.33
2022-11-24T05:39:22.053Z,6.33
2022-11-24T05:41:50.044Z,9.23
2022-11-24T05:44:18.138Z,8.93
2022-11-24T05:46:46.385Z,8.03
2022-11-24T05:49:14.673Z,7.27
2022-11-24T05:51:44.259Z,7.13
2022-11-24T05:54:12.437Z,6.30
2022-11-24T05:56:40.440Z,6.37
2022-11-24T05:59:10.124Z,6.43
2022-11-24T06:01:38.531Z,6.57
2022-11-24T06:04:06.717Z,7.87
2022-11-24T06:06:34.716Z,6.67
2022-11-24T06:09:04.432Z,7.93
2022-11-24T06:11:32.450Z,7.10
2022-11-24T06:14:00.472Z,6.87
2022-11-24T06:16:28.689Z,6.50
2022-11-24T06:18:56.746Z,7.40
2022-11-24T06:21:24.698Z,7.20
2022-11-24T06:23:52.666Z,6.97
2022-11-24T06:26:22.149Z,7.03
2022-11-24T06:28:50.149Z,6.80
2022-11-24T06:31:18.207Z,6.83
2022-11-24T06:33:46.233Z,6.80
2022-11-24T06:36:15.057Z,6.90
2022-11-24T06:38:43.002Z,7.33
2022-11-24T06:41:12.875Z,8.07
2022-11-24T06:43:42.303Z,10.90
2022-11-24T06:46:10.270Z,11.77
2022-11-24T06:48:38.374Z,11.57
2022-11-24T06:51:10.128Z,12.33
2022-11-24T06:53:41.875Z,12.33
2022-11-24T06:56:15.583Z,12.40
2022-11-24T06:58:46.936Z,11.30
2022-11-24T07:01:16.389Z,9.67
2022-11-24T07:03:44.496Z,7.80
2022-11-24T07:06:12.894Z,11.90
2022-11-24T07:08:41.778Z,7.80
2022-11-24T07:11:11.668Z,7.57
2022-11-24T07:13:43.171Z,7.70
2022-11-24T07:16:17.572Z,6.77
2022-11-24T07:18:47.714Z,7.43
2022-11-24T07:21:15.842Z,6.50
2022-11-24T07:23:44.903Z,7.20
2022-11-24T07:26:13.667Z,7.10
2022-11-24T07:28:41.930Z,7.20
2022-11-24T07:31:10.529Z,7.63
2022-11-24T07:33:40.134Z,7.13
2022-11-24T07:36:11.908Z,7.30
2022-11-24T07:38:40.210Z,6.73
2022-11-24T07:41:09.535Z,6.70
2022-11-24T07:43:39.430Z,6.90
2022-11-24T07:46:08.948Z,7.87
2022-11-24T07:48:37.295Z,6.53
2022-11-24T07:51:07.384Z,6.20
2022-11-24T07:53:35.642Z,7.00
2022-11-24T07:56:04.791Z,6.43
2022-11-24T07:58:34.171Z,5.70
2022-11-24T08:01:02.613Z,5.13
2022-11-24T08:03:30.778Z,5.40
2022-11-24T08:08:48.544Z,5.43
2022-11-24T08:11:17.967Z,5.47
2022-11-24T08:13:46.080Z,5.47
2022-11-24T08:16:15.136Z,7.33
2022-11-24T08:18:44.174Z,8.07
2022-11-24T08:21:14.109Z,6.93
2022-11-24T08:23:42.426Z,5.77
2022-11-24T08:26:14.330Z,6.53
2022-11-24T08:28:43.815Z,5.93
2022-11-24T08:31:13.095Z,5.87
2022-11-24T08:33:44.711Z,6.80
2022-11-24T08:36:16.977Z,7.37
2022-11-24T08:38:45.687Z,6.20
2022-11-24T08:41:16.467Z,6.47
2022-11-24T08:43:44.956Z,8.07
2022-11-24T08:46:13.956Z,7.70
2022-11-24T08:48:42.190Z,7.20
2022-11-24T08:51:14.142Z,6.20
2022-11-24T08:53:42.615Z,6.40
2022-11-24T08:56:11.267Z,6.47
2022-11-24T08:58:40.907Z,5.50
2022-11-24T09:01:10.020Z,5.87
2022-11-24T09:03:38.551Z,5.87
2022-11-24T09:06:08.101Z,7.80
2022-11-24T09:08:39.884Z,5.73
2022-11-24T09:11:11.668Z,6.17
2022-11-24T09:13:41.851Z,6.37
2022-11-24T09:16:11.191Z,7.30
2022-11-24T09:18:40.739Z,6.27
2022-11-24T09:21:10.642Z,5.47
2022-11-24T09:23:39.096Z,6.10
2022-11-24T09:26:08.689Z,6.17
2022-11-24T09:28:37.448Z,5.33
2022-11-24T09:31:08.968Z,5.87
2022-11-24T09:33:40.932Z,6.73
2022-11-24T09:36:09.487Z,6.00
2022-11-24T09:38:39.185Z,5.33
2022-11-24T09:41:20.037Z,5.90
2022-11-24T09:43:51.556Z,6.73
2022-11-24T09:46:23.250Z,5.90
2022-11-24T09:48:55.446Z,6.40
2022-11-24T09:51:27.172Z,5.60
2022-11-24T09:53:57.428Z,5.90
2022-11-24T09:56:26.672Z,5.70
2022-11-24T09:58:56.216Z,4.93
2022-11-24T10:01:28.580Z,5.00
2022-11-24T10:04:04.220Z,5.73
2022-11-24T10:06:39.576Z,5.70
2022-11-24T10:09:20.484Z,5.33
2022-11-24T10:11:59.354Z,4.67
2022-11-24T10:14:40.590Z,6.23
2022-11-24T10:17:15.520Z,5.17
2022-11-24T10:19:47.755Z,4.27
2022-11-24T10:22:29.501Z,4.77
2022-11-24T10:25:06.923Z,5.23
2022-11-24T10:27:37.144Z,5.17
2022-11-24T10:30:13.755Z,5.03
2022-11-24T10:32:45.589Z,4.90
2022-11-24T10:35:16.614Z,5.00
2022-11-24T10:37:46.384Z,5.40
2022-11-24T10:40:41.044Z,5.43
2022-11-24T10:43:13.399Z,5.07
2022-11-24T10:45:41.975Z,4.93
2022-11-24T10:48:14.601Z,4.73
2022-11-24T10:50:43.089Z,4.33
2022-11-24T10:53:17.793Z,4.13
2022-11-24T10:56:02.830Z,4.80
2022-11-24T10:58:37.403Z,4.67
2022-11-24T11:01:20.848Z,5.83
2022-11-24T11:03:50.880Z,5.03
2022-11-24T11:06:23.625Z,4.07
2022-11-24T11:08:54.669Z,4.00
2022-11-24T11:11:23.928Z,3.90
2022-11-24T11:14:03.099Z,4.23
2022-11-24T11:16:37.218Z,3.80
2022-11-24T11:19:26.008Z,3.97
2022-11-24T11:22:01.593Z,4.77
2022-11-24T11:24:29.954Z,3.90
2022-11-24T11:27:01.274Z,3.23
2022-11-24T11:35:13.341Z,3.10
2022-11-24T11:37:41.678Z,3.40
2022-11-24T11:40:14.511Z,3.90
2022-11-24T11:43:01.934Z,3.67
2022-11-24T11:45:33.988Z,3.60
2022-11-24T11:48:08.949Z,3.50
2022-11-24T11:51:15.096Z,3.57
2022-11-24T11:53:33.272Z,3.03
2022-11-24T11:56:04.835Z,3.40
2022-11-24T11:58:43.877Z,3.30
2022-11-24T12:01:18.498Z,2.80
2022-11-24T12:03:58.959Z,3.30
2022-11-24T12:06:35.906Z,3.50
2022-11-24T12:09:20.291Z,3.73
2022-11-24T12:11:54.602Z,3.40
2022-11-24T12:14:28.262Z,2.77
2022-11-24T12:17:01.253Z,3.57
2022-11-24T12:19:33.372Z,3.37
2022-11-24T12:22:07.427Z,2.80
2022-11-24T12:24:39.063Z,2.97
2022-11-24T12:27:12.063Z,3.13
2022-11-24T12:30:00.850Z,3.70
2022-11-24T12:32:37.738Z,3.53
2022-11-24T12:35:13.801Z,3.50
2022-11-24T12:37:51.357Z,4.37
2022-11-24T12:40:24.889Z,3.40
2022-11-24T12:42:57.914Z,3.90
2022-11-24T12:45:33.855Z,3.17
2022-11-24T12:48:19.962Z,2.83
2022-11-24T12:50:48.344Z,3.33
2022-11-24T12:53:19.332Z,3.17
2022-11-24T12:55:47.757Z,3.03
2022-11-24T12:58:18.224Z,3.03
2022-11-24T13:00:53.771Z,3.40
2022-11-24T13:03:28.497Z,3.60
2022-11-24T13:05:58.945Z,3.50
2022-11-24T13:08:29.415Z,3.33
2022-11-24T13:11:17.530Z,3.93
2022-11-24T13:13:57.435Z,3.43
2022-11-24T13:16:36.054Z,3.40
2022-11-24T13:19:10.834Z,3.43
2022-11-24T13:21:51.950Z,3.80
2022-11-24T13:24:26.193Z,3.90
2022-11-24T13:26:55.258Z,3.83
2022-11-24T13:29:34.397Z,2.77
2022-11-24T13:32:35.314Z,3.77
2022-11-24T13:35:04.485Z,3.73
2022-11-24T13:37:51.643Z,3.97
2022-11-24T13:40:45.875Z,4.60
2022-11-24T13:43:23.891Z,3.43
2022-11-24T13:45:52.755Z,3.37
2022-11-24T13:48:42.261Z,3.33
2022-11-24T13:51:15.628Z,2.77
2022-11-24T13:53:45.009Z,3.83
2022-11-24T13:56:23.730Z,3.00
2022-11-24T13:58:52.385Z,3.20
2022-11-24T14:01:21.580Z,3.80
2022-11-24T14:06:50.769Z,3.20
2022-11-24T14:09:26.689Z,2.77
2022-11-24T14:12:05.258Z,3.17
2022-11-24T14:14:33.432Z,3.33
2022-11-24T14:17:18.285Z,3.10
2022-11-24T14:19:46.945Z,3.50
2022-11-24T14:22:17.459Z,3.67
2022-11-24T14:24:46.859Z,4.17
2022-11-24T14:27:18.117Z,3.63
2022-11-24T14:29:56.135Z,3.40
2022-11-24T14:32:24.352Z,3.13
2022-11-24T14:34:54.261Z,3.20
2022-11-24T14:37:22.400Z,3.57
2022-11-24T14:39:50.333Z,3.70
2022-11-24T14:42:21.152Z,3.50
2022-11-24T14:44:51.929Z,4.07
2022-11-24T14:47:28.785Z,3.67
2022-11-24T14:49:59.588Z,3.30
2022-11-24T14:52:27.645Z,3.33
2022-11-24T14:54:56.943Z,3.40
2022-11-24T14:57:27.730Z,3.43
2022-11-24T15:00:17.249Z,2.90
2022-11-24T15:02:48.458Z,3.27
2022-11-24T15:05:16.772Z,2.97
2022-11-24T15:07:45.316Z,3.77
2022-11-24T15:10:20.990Z,3.20
2022-11-24T15:12:55.782Z,4.37
2022-11-24T15:15:25.239Z,3.47
2022-11-24T15:17:54.916Z,3.43
2022-11-24T15:20:26.464Z,4.23
2022-11-24T15:23:09.232Z,4.30
2022-11-24T15:25:37.323Z,3.33
2022-11-24T15:28:06.816Z,7.57
2022-11-24T15:30:35.567Z,4.77
2022-11-24T15:33:03.506Z,4.13
2022-11-24T15:35:32.619Z,3.83
2022-11-24T15:38:00.594Z,4.20
2022-11-24T15:40:28.503Z,4.73
2022-11-24T15:42:59.617Z,5.07
2022-11-24T15:45:35.347Z,4.50
2022-11-24T15:48:03.341Z,5.03
2022-11-24T15:50:31.273Z,4.70
2022-11-24T15:52:59.278Z,4.33
2022-11-24T15:55:27.364Z,4.97
2022-11-24T15:57:55.384Z,4.53
2022-11-24T16:00:24.564Z,4.80
2022-11-24T16:02:53.984Z,4.60
2022-11-24T16:05:21.936Z,4.43
2022-11-24T16:07:49.867Z,3.70
2022-11-24T16:10:23.034Z,4.33
2022-11-24T16:12:51.006Z,4.67
2022-11-24T16:15:19.075Z,3.77
2022-11-24T16:17:47.027Z,3.77
2022-11-24T16:20:16.763Z,5.90
2022-11-24T16:22:44.796Z,8.00
2022-11-24T16:25:12.913Z,6.73
2022-11-24T16:27:40.987Z,5.77
2022-11-24T16:30:09.967Z,5.47
2022-11-24T16:32:38.103Z,4.57
2022-11-24T16:35:06.368Z,4.70
2022-11-24T16:37:39.218Z,4.23
2022-11-24T16:40:10.796Z,5.03
2022-11-24T16:42:39.236Z,4.43
2022-11-24T16:45:07.933Z,4.93
2022-11-24T16:47:39.800Z,4.23
2022-11-24T16:50:08.612Z,4.30
2022-11-24T16:52:38.004Z,4.50
2022-11-24T16:55:09.796Z,5.53
2022-11-24T16:57:38.397Z,6.63
2022-11-24T17:00:06.954Z,8.03
2022-11-24T17:02:35.368Z,9.27
2022-11-24T17:05:03.713Z,10.23
2022-11-24T17:07:34.592Z,11.90
2022-11-24T17:10:02.576Z,8.20
2022-11-24T17:12:32.060Z,10.27
2022-11-24T17:15:30.562Z,9.03
2022-11-24T17:18:16.356Z,8.13
2022-11-24T17:20:36.406Z,7.20
2022-11-24T17:23:04.402Z,7.63
2022-11-24T17:25:33.206Z,6.03
2022-11-24T17:28:02.618Z,6.27
2022-11-24T17:30:30.548Z,7.60
2022-11-24T17:32:58.530Z,7.00
2022-11-24T17:35:26.569Z,6.80
2022-11-24T17:37:56.411Z,6.63
2022-11-24T17:40:28.987Z,7.47
2022-11-24T17:42:58.768Z,6.03
2022-11-24T17:45:28.483Z,7.87
2022-11-24T17:47:56.832Z,7.53
2022-11-24T17:50:26.335Z,7.30
2022-11-24T17:52:54.655Z,7.40
2022-11-24T17:55:22.799Z,6.50
2022-11-24T17:57:50.852Z,6.50
2022-11-24T18:00:19.315Z,7.03
2022-11-24T18:02:48.735Z,6.13
2022-11-24T18:05:16.714Z,6.03
2022-11-24T18:07:44.722Z,6.07
2022-11-24T18:10:12.784Z,5.63
2022-11-24T18:12:40.717Z,5.40
2022-11-24T18:15:09.367Z,5.17
2022-11-24T18:17:37.350Z,5.40
2022-11-24T18:20:07.472Z,6.30
2022-11-24T18:23:05.076Z,6.53
2022-11-24T18:25:23.404Z,7.80
2022-11-24T18:27:51.502Z,8.10
2022-11-24T18:30:19.560Z,7.90
2022-11-24T18:32:47.473Z,6.87
2022-11-24T18:35:16.866Z,6.10
2022-11-24T18:37:44.840Z,6.70
2022-11-24T18:40:12.952Z,6.73
2022-11-24T18:42:40.869Z,6.93
2022-11-24T18:45:09.571Z,7.67
2022-11-24T18:47:37.540Z,8.40
2022-11-24T18:50:05.928Z,8.63
2022-11-24T18:52:35.295Z,10.00
2022-11-24T18:55:04.915Z,9.83
2022-11-24T18:57:32.845Z,9.60
2022-11-24T19:00:00.898Z,8.17
2022-11-24T19:02:28.855Z,7.73
2022-11-24T19:04:56.863Z,13.37
2022-11-24T19:07:24.863Z,12.07
2022-11-24T19:09:54.252Z,11.03
2022-11-24T19:12:22.309Z,10.63
2022-11-24T19:14:50.223Z,10.40
2022-11-24T19:17:18.156Z,15.30
2022-11-24T19:19:46.111Z,12.70
2022-11-24T19:22:17.315Z,10.83
2022-11-24T19:24:46.734Z,11.07
2022-11-24T19:27:16.815Z,10.53
2022-11-24T19:29:44.746Z,10.30
2022-11-24T19:32:12.801Z,9.80
2022-11-24T19:34:40.929Z,11.10
2022-11-24T19:37:08.974Z,10.97
2022-11-24T19:39:37.065Z,10.47
2022-11-24T19:42:05.219Z,11.73
2022-11-24T19:44:34.757Z,11.07
2022-11-24T19:47:02.998Z,11.97
2022-11-24T19:49:30.954Z,11.43
2022-11-24T19:51:58.902Z,13.03
2022-11-24T19:54:26.862Z,11.80
2022-11-24T19:56:55.665Z,11.50
2022-11-24T19:59:26.609Z,11.70
2022-11-24T20:01:56.794Z,17.50
2022-11-24T20:04:25.011Z,14.80
2022-11-24T20:06:52.990Z,13.50
2022-11-24T20:09:20.952Z,12.63
2022-11-24T20:11:49.869Z,14.00
2022-11-24T20:14:19.165Z,12.07
2022-11-24T20:16:47.971Z,11.73
2022-11-24T20:19:18.467Z,13.53
2022-11-24T20:21:49.398Z,12.83
2022-11-24T20:24:19.053Z,12.73
2022-11-24T20:26:48.059Z,12.30
2022-11-24T20:29:16.487Z,12.83
2022-11-24T20:31:45.832Z,12.03
2022-11-24T20:34:13.841Z,11.67
2022-11-24T20:36:44.246Z,9.87
2022-11-24T20:39:13.830Z,11.37
2022-11-24T20:41:41.846Z,11.37
2022-11-24T20:44:13.395Z,11.50
2022-11-24T20:46:42.035Z,11.27
2022-11-24T20:49:12.162Z,11.57
2022-11-24T20:51:43.972Z,13.17
2022-11-24T20:54:14.170Z,13.23
2022-11-24T20:56:43.751Z,14.10
2022-11-24T20:59:12.876Z,14.60
2022-11-24T21:01:42.580Z,13.63
2022-11-24T21:04:12.057Z,10.63
2022-11-24T21:06:40.189Z,9.20
2022-11-24T21:09:11.959Z,9.03
2022-11-24T21:11:41.708Z,8.17
2022-11-24T21:14:10.034Z,12.70
2022-11-24T21:16:38.937Z,13.23
2022-11-24T21:19:07.891Z,10.37
2022-11-24T21:21:36.863Z,8.93
2022-11-24T21:24:05.506Z,8.33
2022-11-24T21:26:35.785Z,8.60
2022-11-24T21:29:05.329Z,9.67
2022-11-24T21:31:35.649Z,10.43
2022-11-24T21:34:03.722Z,10.80
2022-11-24T21:36:33.123Z,9.03
2022-11-24T21:39:01.962Z,9.13
2022-11-24T21:41:30.348Z,8.80
2022-11-24T21:43:58.399Z,9.40
2022-11-24T21:46:29.347Z,9.47
2022-11-24T21:48:57.273Z,9.03
2022-11-24T21:51:25.236Z,8.67
2022-11-24T21:53:53.190Z,7.83
2022-11-24T21:56:21.630Z,8.50
2022-11-24T21:58:50.201Z,8.23
2022-11-24T22:01:18.758Z,7.93
2022-11-24T22:03:48.272Z,7.37
2022-11-24T22:06:17.838Z,8.23
2022-11-24T22:08:46.174Z,7.83
2022-11-24T22:11:15.123Z,8.00
2022-11-24T22:13:43.607Z,8.87
2022-11-24T22:16:12.642Z,7.57
2022-11-24T22:18:41.510Z,7.73
2022-11-24T22:21:12.138Z,8.70
2022-11-24T22:23:40.152Z,8.80
2022-11-24T22:26:09.423Z,8.77
2022-11-24T22:28:37.885Z,8.60
2022-11-24T22:31:06.400Z,9.03
2022-11-24T22:33:34.522Z,8.47
2022-11-24T22:36:02.889Z,9.63
2022-11-24T22:38:32.594Z,8.20
2022-11-24T22:41:03.887Z,8.67
2022-11-24T22:43:33.028Z,9.17
2022-11-24T22:46:03.877Z,8.47
2022-11-24T22:48:31.898Z,8.20
2022-11-24T22:51:03.531Z,8.63
2022-11-24T22:53:32.985Z,7.23
2022-11-24T22:56:04.107Z,7.87
2022-11-24T22:58:33.690Z,7.53
2022-11-24T23:01:05.504Z,8.03
2022-11-24T23:03:33.979Z,7.50
2022-11-24T23:06:02.034Z,7.60
2022-11-24T23:08:30.002Z,7.07
2022-11-24T23:11:02.902Z,8.73
2022-11-24T23:13:30.888Z,7.80
2022-11-24T23:16:02.907Z,8.13
2022-11-24T23:18:31.085Z,6.70
2022-11-24T23:21:04.938Z,8.40
2022-11-24T23:23:32.914Z,7.50
2022-11-24T23:26:02.843Z,7.83
2022-11-24T23:28:30.831Z,6.60
2022-11-24T23:31:01.694Z,6.70
2022-11-24T23:33:29.837Z,7.03
2022-11-24T23:35:57.964Z,7.43
2022-11-24T23:38:28.766Z,6.80
2022-11-24T23:40:56.723Z,7.73
2022-11-24T23:43:26.385Z,6.83
2022-11-24T23:45:54.604Z,6.43
2022-11-24T23:48:22.549Z,10.30
2022-11-24T23:50:50.573Z,8.77
2022-11-24T23:53:18.453Z,8.00
2022-11-24T23:55:53.228Z,7.97
2022-11-24T23:58:21.340Z,8.33
